Map

Track Data

SID SEASON NUMBER BASIN SUBBASIN NAME ISO_TIME NATURE LAT LON WMO_WIND WMO_PRES WMO_AGENCY TRACK_TYPE DIST2LAND LANDFALL IFLAG USA_AGENCY USA_ATCF_ID USA_LAT USA_LON USA_RECORD USA_STATUS USA_WIND USA_PRES USA_SSHS USA_R34_NE USA_R34_SE USA_R34_SW USA_R34_NW USA_R50_NE USA_R50_SE USA_R50_SW USA_R50_NW USA_R64_NE USA_R64_SE USA_R64_SW USA_R64_NW USA_POCI USA_ROCI USA_RMW USA_EYE TOKYO_LAT TOKYO_LON TOKYO_GRADE TOKYO_WIND TOKYO_PRES TOKYO_R50_DIR TOKYO_R50_LONG TOKYO_R50_SHORT TOKYO_R30_DIR TOKYO_R30_LONG TOKYO_R30_SHORT TOKYO_LAND CMA_LAT CMA_LON CMA_CAT CMA_WIND CMA_PRES HKO_LAT HKO_LON HKO_CAT HKO_WIND HKO_PRES NEWDELHI_LAT NEWDELHI_LON NEWDELHI_GRADE NEWDELHI_WIND NEWDELHI_PRES NEWDELHI_CI NEWDELHI_DP NEWDELHI_POCI REUNION_LAT REUNION_LON REUNION_TYPE REUNION_WIND REUNION_PRES REUNION_TNUM REUNION_CI REUNION_RMW REUNION_R34_NE REUNION_R34_SE REUNION_R34_SW REUNION_R34_NW REUNION_R50_NE REUNION_R50_SE REUNION_R50_SW REUNION_R50_NW REUNION_R64_NE REUNION_R64_SE REUNION_R64_SW REUNION_R64_NW BOM_LAT BOM_LON BOM_TYPE BOM_WIND BOM_PRES BOM_TNUM BOM_CI BOM_RMW BOM_R34_NE BOM_R34_SE BOM_R34_SW BOM_R34_NW BOM_R50_NE BOM_R50_SE BOM_R50_SW BOM_R50_NW BOM_R64_NE BOM_R64_SE BOM_R64_SW BOM_R64_NW BOM_ROCI BOM_POCI BOM_EYE BOM_POS_METHOD BOM_PRES_METHOD NADI_LAT NADI_LON NADI_CAT NADI_WIND NADI_PRES WELLINGTON_LAT WELLINGTON_LON WELLINGTON_WIND WELLINGTON_PRES DS824_LAT DS824_LON DS824_STAGE DS824_WIND DS824_PRES TD9636_LAT TD9636_LON TD9636_STAGE TD9636_WIND TD9636_PRES TD9635_LAT TD9635_LON TD9635_WIND TD9635_PRES TD9635_ROCI NEUMANN_LAT NEUMANN_LON NEUMANN_CLASS NEUMANN_WIND NEUMANN_PRES MLC_LAT MLC_LON MLC_CLASS MLC_WIND MLC_PRES USA_GUST BOM_GUST BOM_GUST_PER REUNION_GUST REUNION_GUST_PER USA_SEAHGT USA_SEARAD_NE USA_SEARAD_SE USA_SEARAD_SW USA_SEARAD_NW STORM_SPEED STORM_DIR
1904184N14126 1904 16 WP MM NOT_NAMED 1904-07-01 13:00:00 NR 14.0000 125.900 main 162 154 __________O___ -1 14.0000 125.900 7 7 347
1904184N14126 1904 16 WP MM NOT_NAMED 1904-07-01 15:00:00 NR 14.2349 125.838 main 154 157 __________P___ -1 14.2349 125.838 7 7 346
1904184N14126 1904 16 WP MM NOT_NAMED 1904-07-01 18:00:00 NR 14.5929 125.755 main 170 160 __________P___ -1 14.5929 125.755 7 7 350
1904184N14126 1904 16 WP MM NOT_NAMED 1904-07-01 21:00:00 NR 14.9655 125.701 main 186 186 __________P___ -1 14.9655 125.701 7 8 355
1904184N14126 1904 16 WP MM NOT_NAMED 1904-07-02 00:00:00 NR 15.3613 125.690 main 217 217 __________P___ -1 15.3613 125.690 7 8 357
1904184N14126 1904 16 WP MM NOT_NAMED 1904-07-02 01:00:00 NR 15.5000 125.700 main 225 225 __________O___ -1 15.5000 125.700 7 9 4
1904184N14126 1904 16 WP MM NOT_NAMED 1904-07-02 03:00:00 NR 15.7881 125.741 main 251 251 __________P___ -1 15.7881 125.741 7 9 11
1904184N14126 1904 16 WP MM NOT_NAMED 1904-07-02 06:00:00 NR 16.2394 125.846 main 294 309 __________P___ -1 16.2394 125.846 7 9 15
1904184N14126 1904 16 WP MM NOT_NAMED 1904-07-02 09:00:00 NR 16.6995 125.987 main 352 352 __________P___ -1 16.6995 125.987 7 10 17
1904184N14126 1904 16 WP MM NOT_NAMED 1904-07-02 12:00:00 NR 17.1530 126.146 main 383 393 __________P___ -1 17.1530 126.146 7 10 18
1904184N14126 1904 16 WP MM NOT_NAMED 1904-07-02 13:00:00 NR 17.3000 126.200 main 394 394 __________O___ -1 17.3000 126.200 7 9 22
1904184N14126 1904 16 WP MM NOT_NAMED 1904-07-02 15:00:00 NR 17.5834 126.328 main 409 409 __________P___ -1 17.5834 126.328 7 9 24
1904184N14126 1904 16 WP MM NOT_NAMED 1904-07-02 18:00:00 NR 17.9959 126.527 main 438 438 __________P___ -1 17.9959 126.527 7 9 23
1904184N14126 1904 16 WP MM NOT_NAMED 1904-07-02 21:00:00 NR 18.3934 126.696 main 464 464 __________P___ -1 18.3934 126.696 7 8 18
1904184N14126 1904 16 WP MM NOT_NAMED 1904-07-03 00:00:00 NR 18.7758 126.792 main 476 476 __________P___ -1 18.7758 126.792 7 8 11
1904184N14126 1904 16 WP MM NOT_NAMED 1904-07-03 01:00:00 NR 18.9000 126.800 main 477 469 __________O___ -1 18.9000 126.800 7 8 355
1904184N14126 1904 16 WP MM NOT_NAMED 1904-07-03 03:00:00 NR 19.1475 126.743 main 469 465 __________P___ -1 19.1475 126.743 7 8 341
1904184N14126 1904 16 WP MM NOT_NAMED 1904-07-03 06:00:00 NR 19.5062 126.574 main 468 454 __________P___ -1 19.5062 126.574 7 8 333
1904184N14126 1904 16 WP MM NOT_NAMED 1904-07-03 09:00:00 NR 19.8524 126.358 main 462 446 __________P___ -1 19.8524 126.358 7 8 330
1904184N14126 1904 16 WP MM NOT_NAMED 1904-07-03 12:00:00 NR 20.1892 126.155 main 456 446 __________P___ -1 20.1892 126.155 7 8 332
1904184N14126 1904 16 WP MM NOT_NAMED 1904-07-03 13:00:00 NR 20.3000 126.100 main 451 451 __________O___ -1 20.3000 126.100 7 7 349
1904184N14126 1904 16 WP MM NOT_NAMED 1904-07-03 15:00:00 NR 20.5327 126.077 main 462 468 __________P___ -1 20.5327 126.077 7 7 358
1904184N14126 1904 16 WP MM NOT_NAMED 1904-07-03 18:00:00 NR 20.8757 126.082 main 486 486 __________P___ -1 20.8757 126.082 7 7 0
1904184N14126 1904 16 WP MM NOT_NAMED 1904-07-03 21:00:00 NR 21.2032 126.086 main 506 505 __________P___ -1 21.2032 126.086 7 6 356
1904184N14126 1904 16 WP MM NOT_NAMED 1904-07-04 00:00:00 NR 21.5061 126.037 main 505 501 __________P___ -1 21.5061 126.037 7 6 348
1904184N14126 1904 16 WP MM NOT_NAMED 1904-07-04 01:00:00 NR 21.6000 126.000 main 501 484 __________O___ -1 21.6000 126.000 7 6 328
1904184N14126 1904 16 WP MM NOT_NAMED 1904-07-04 03:00:00 NR 21.7625 125.865 main 484 448 __________P___ -1 21.7625 125.865 7 6 315
1904184N14126 1904 16 WP MM NOT_NAMED 1904-07-04 06:00:00 NR 21.9807 125.594 main 448 412 __________P___ -1 21.9807 125.594 7 7 308
1904184N14126 1904 16 WP MM NOT_NAMED 1904-07-04 09:00:00 NR 22.1904 125.267 main 412 367 __________P___ -1 22.1904 125.267 7 8 305
1904184N14126 1904 16 WP MM NOT_NAMED 1904-07-04 12:00:00 NR 22.4166 124.917 main 367 354 __________P___ -1 22.4166 124.917 7 8 306
1904184N14126 1904 16 WP MM NOT_NAMED 1904-07-04 13:00:00 NR 22.5000 124.800 main 354 330 __________O___ -1 22.5000 124.800 7 8 310
1904184N14126 1904 16 WP MM NOT_NAMED 1904-07-04 15:00:00 NR 22.6827 124.572 main 330 286 __________P___ -1 22.6827 124.572 7 9 314
1904184N14126 1904 16 WP MM NOT_NAMED 1904-07-04 18:00:00 NR 22.9905 124.242 main 286 243 __________P___ -1 22.9905 124.242 7 9 317
1904184N14126 1904 16 WP MM NOT_NAMED 1904-07-04 21:00:00 NR 23.3274 123.921 main 243 194 __________P___ -1 23.3274 123.921 7 9 320
1904184N14126 1904 16 WP MM NOT_NAMED 1904-07-05 00:00:00 NR 23.6808 123.605 main 194 180 __________P___ -1 23.6808 123.605 7 9 321
1904184N14126 1904 16 WP MM NOT_NAMED 1904-07-05 01:00:00 NR 23.8000 123.500 main 180 __________O___ -1 23.8000 123.500 7 9 321

Digital Typhoon Data and Search

About IBTrACS Database

This database is a web-friendly format of International Best Track Archive for Climate Stewardship (IBTrACS), a global best track data archive curated by NOAA dating back to 1842.

Updated: 2021-10-21